Middleburg, VA

1:26 PM EST on December 04, 2016 (GMT -0500)
Mayfield | | Change Station

Elev 548 ft 38.93 °N, 77.77 °W | Updated 9 minutes ago

Clear
Clear
43.5 °F
Feels Like 44 °F
N
0.0
Wind Variable Wind from West
Gusts 0.0 mph

Today
High -- | Low -- °F
--% Chance of Precip.
Yesterday
High -- | Low -- °F
Precip. -- in
Pressure 30.24 in
Visibility 10.0 miles
Clouds Clear
Windchill 44 °F
Dew Point 30 °F
Humidity 60%
Rainfall 0.00 in
Snow Depth Not available.
7:14 AM 4:48 PM
Waxing Crescent, 24% visible
METAR KJYO 041815Z AUTO 00000KT 10SM CLR 07/00 A3024 RMK AO2
Pressure 30.24 in
Visibility 10.0 miles
Clouds Clear
Windchill 44 °F
Dew Point 30 °F
Humidity 60%
Rainfall 0.00 in
Snow Depth Not available.
7:14 AM 4:48 PM
Waxing Crescent, 24% visible
METAR KJYO 041815Z AUTO 00000KT 10SM CLR 07/00 A3024 RMK AO2

10-Day Weather Forecast

Almanac

Astronomy

Dec. 04, 2016 Rise Set
Actual Time
Civil Twilight
Nautical Twilight
Astronomical Twilight
Moon
Length of Visible Light
Length of Day
Tomorrow will be .
, % of the Moon is Illuminated

Today's Extremes

State Highs State Lows

Community

WunderPhotos

Upload Photos

1,955,639 photos uploaded!

WunderBlog® & News

Nearby

Air Quality

  Air Quality AQ Index Pollutant
Not available.

Snow Depth

Station Depth Elevation

Earthquake Activity

City Distance Mag. Time & Date
Minimum magnitude displayed is 2.5.

Coastal Water Temperatures

Place Temperature

Stations

Nearby Weather Stations

Station Location Temp. Windchill Dew Point Humidity Wind Precip. Elev Updated Type
                   

Watches & Warnings

There are currently no watches in effect.